sensor_id;sensor_type;location;lat;lon;timestamp;P1;durP1;ratioP1;P2;durP2;ratioP2
12356;SDS011;6243;51.244;6.774;2024-01-25T00:01:48;25.67;;;6.33;;
12356;SDS011;6243;51.244;6.774;2024-01-25T00:04:13;20.33;;;6.50;;
12356;SDS011;6243;51.244;6.774;2024-01-25T00:06:40;22.80;;;6.70;;
12356;SDS011;6243;51.244;6.774;2024-01-25T00:09:05;23.23;;;6.63;;
12356;SDS011;6243;51.244;6.774;2024-01-25T00:11:31;26.33;;;6.20;;
12356;SDS011;6243;51.244;6.774;2024-01-25T00:13:56;28.97;;;7.07;;
12356;SDS011;6243;51.244;6.774;2024-01-25T00:16:22;19.70;;;6.20;;
12356;SDS011;6243;51.244;6.774;2024-01-25T00:18:47;22.80;;;6.40;;
12356;SDS011;6243;51.244;6.774;2024-01-25T00:21:13;29.17;;;7.27;;
12356;SDS011;6243;51.244;6.774;2024-01-25T00:23:40;23.23;;;6.03;;
12356;SDS011;6243;51.244;6.774;2024-01-25T00:26:05;28.13;;;7.13;;
12356;SDS011;6243;51.244;6.774;2024-01-25T00:28:31;22.50;;;6.50;;
12356;SDS011;6243;51.244;6.774;2024-01-25T00:30:56;22.30;;;6.63;;
12356;SDS011;6243;51.244;6.774;2024-01-25T00:33:22;27.17;;;6.77;;
12356;SDS011;6243;51.244;6.774;2024-01-25T00:35:48;26.67;;;6.97;;
12356;SDS011;6243;51.244;6.774;2024-01-25T00:38:14;20.60;;;6.30;;
12356;SDS011;6243;51.244;6.774;2024-01-25T00:40:42;25.10;;;6.33;;
12356;SDS011;6243;51.244;6.774;2024-01-25T00:43:08;28.83;;;6.77;;
12356;SDS011;6243;51.244;6.774;2024-01-25T00:45:34;23.10;;;6.90;;
12356;SDS011;6243;51.244;6.774;2024-01-25T00:48:00;28.03;;;7.03;;
12356;SDS011;6243;51.244;6.774;2024-01-25T00:50:26;24.33;;;6.30;;
12356;SDS011;6243;51.244;6.774;2024-01-25T00:52:52;22.50;;;5.93;;
12356;SDS011;6243;51.244;6.774;2024-01-25T00:55:18;25.67;;;6.10;;
12356;SDS011;6243;51.244;6.774;2024-01-25T00:57:46;25.53;;;6.07;;
12356;SDS011;6243;51.244;6.774;2024-01-25T01:00:12;27.27;;;6.83;;
12356;SDS011;6243;51.244;6.774;2024-01-25T01:02:39;28.30;;;7.70;;
12356;SDS011;6243;51.244;6.774;2024-01-25T01:05:08;20.77;;;6.13;;
12356;SDS011;6243;51.244;6.774;2024-01-25T01:07:34;34.80;;;8.83;;
12356;SDS011;6243;51.244;6.774;2024-01-25T01:10:00;21.77;;;6.17;;
12356;SDS011;6243;51.244;6.774;2024-01-25T01:12:25;21.20;;;5.83;;
12356;SDS011;6243;51.244;6.774;2024-01-25T01:14:52;19.57;;;6.50;;
12356;SDS011;6243;51.244;6.774;2024-01-25T01:17:18;20.40;;;6.27;;
12356;SDS011;6243;51.244;6.774;2024-01-25T01:19:43;25.97;;;6.43;;
12356;SDS011;6243;51.244;6.774;2024-01-25T01:22:09;26.33;;;6.70;;
12356;SDS011;6243;51.244;6.774;2024-01-25T01:24:34;28.50;;;6.53;;
12356;SDS011;6243;51.244;6.774;2024-01-25T01:27:00;26.07;;;6.60;;
12356;SDS011;6243;51.244;6.774;2024-01-25T01:29:25;23.37;;;6.43;;
12356;SDS011;6243;51.244;6.774;2024-01-25T01:31:52;31.07;;;6.57;;
12356;SDS011;6243;51.244;6.774;2024-01-25T01:34:18;20.53;;;5.97;;
12356;SDS011;6243;51.244;6.774;2024-01-25T01:36:43;26.07;;;6.87;;
12356;SDS011;6243;51.244;6.774;2024-01-25T01:39:09;26.00;;;6.60;;
12356;SDS011;6243;51.244;6.774;2024-01-25T01:41:35;21.90;;;5.97;;
12356;SDS011;6243;51.244;6.774;2024-01-25T01:44:00;24.17;;;6.23;;
12356;SDS011;6243;51.244;6.774;2024-01-25T01:46:28;31.50;;;7.10;;
12356;SDS011;6243;51.244;6.774;2024-01-25T01:48:59;31.27;;;6.40;;
12356;SDS011;6243;51.244;6.774;2024-01-25T01:51:25;22.53;;;6.67;;
12356;SDS011;6243;51.244;6.774;2024-01-25T01:53:50;29.53;;;7.00;;
12356;SDS011;6243;51.244;6.774;2024-01-25T01:56:17;27.90;;;7.73;;
12356;SDS011;6243;51.244;6.774;2024-01-25T01:58:42;26.33;;;6.93;;
12356;SDS011;6243;51.244;6.774;2024-01-25T02:01:10;23.57;;;6.47;;
12356;SDS011;6243;51.244;6.774;2024-01-25T02:03:38;23.47;;;6.47;;
12356;SDS011;6243;51.244;6.774;2024-01-25T02:06:05;30.60;;;6.30;;
12356;SDS011;6243;51.244;6.774;2024-01-25T02:08:31;25.47;;;6.47;;
12356;SDS011;6243;51.244;6.774;2024-01-25T02:10:57;21.53;;;5.97;;
12356;SDS011;6243;51.244;6.774;2024-01-25T02:13:22;26.33;;;7.27;;
12356;SDS011;6243;51.244;6.774;2024-01-25T02:15:48;28.20;;;6.70;;
12356;SDS011;6243;51.244;6.774;2024-01-25T02:18:14;23.43;;;6.40;;
12356;SDS011;6243;51.244;6.774;2024-01-25T02:20:39;33.17;;;7.67;;
12356;SDS011;6243;51.244;6.774;2024-01-25T02:23:06;31.20;;;8.00;;
12356;SDS011;6243;51.244;6.774;2024-01-25T02:25:32;25.73;;;7.07;;
12356;SDS011;6243;51.244;6.774;2024-01-25T02:27:58;22.17;;;6.70;;
12356;SDS011;6243;51.244;6.774;2024-01-25T02:30:23;22.97;;;6.97;;
12356;SDS011;6243;51.244;6.774;2024-01-25T02:32:49;25.07;;;6.50;;
12356;SDS011;6243;51.244;6.774;2024-01-25T02:35:14;27.33;;;7.13;;
12356;SDS011;6243;51.244;6.774;2024-01-25T02:37:40;27.00;;;6.47;;
12356;SDS011;6243;51.244;6.774;2024-01-25T02:40:07;22.80;;;6.77;;
12356;SDS011;6243;51.244;6.774;2024-01-25T02:42:33;26.90;;;6.33;;
12356;SDS011;6243;51.244;6.774;2024-01-25T02:44:59;26.43;;;6.73;;
12356;SDS011;6243;51.244;6.774;2024-01-25T02:47:24;31.03;;;6.90;;
12356;SDS011;6243;51.244;6.774;2024-01-25T02:49:50;25.57;;;6.77;;
12356;SDS011;6243;51.244;6.774;2024-01-25T02:52:15;29.33;;;7.17;;
12356;SDS011;6243;51.244;6.774;2024-01-25T02:54:41;22.33;;;6.63;;
12356;SDS011;6243;51.244;6.774;2024-01-25T02:57:08;21.93;;;6.37;;
12356;SDS011;6243;51.244;6.774;2024-01-25T02:59:33;24.00;;;6.50;;
12356;SDS011;6243;51.244;6.774;2024-01-25T03:01:59;27.23;;;6.70;;
12356;SDS011;6243;51.244;6.774;2024-01-25T03:04:24;27.77;;;7.10;;
12356;SDS011;6243;51.244;6.774;2024-01-25T03:06:50;27.30;;;6.93;;
12356;SDS011;6243;51.244;6.774;2024-01-25T03:09:15;27.43;;;7.23;;
12356;SDS011;6243;51.244;6.774;2024-01-25T03:11:41;26.90;;;7.10;;
12356;SDS011;6243;51.244;6.774;2024-01-25T03:14:07;21.60;;;6.57;;
12356;SDS011;6243;51.244;6.774;2024-01-25T03:16:33;31.53;;;7.67;;
12356;SDS011;6243;51.244;6.774;2024-01-25T03:18:58;24.53;;;6.27;;
12356;SDS011;6243;51.244;6.774;2024-01-25T03:21:24;30.93;;;7.67;;
12356;SDS011;6243;51.244;6.774;2024-01-25T03:23:49;20.47;;;6.17;;
12356;SDS011;6243;51.244;6.774;2024-01-25T03:26:16;28.90;;;7.33;;
12356;SDS011;6243;51.244;6.774;2024-01-25T03:28:41;27.20;;;6.77;;
12356;SDS011;6243;51.244;6.774;2024-01-25T03:31:08;26.20;;;6.50;;
12356;SDS011;6243;51.244;6.774;2024-01-25T03:33:34;25.20;;;6.47;;
12356;SDS011;6243;51.244;6.774;2024-01-25T03:36:01;25.87;;;6.10;;
12356;SDS011;6243;51.244;6.774;2024-01-25T03:38:27;33.53;;;7.07;;
12356;SDS011;6243;51.244;6.774;2024-01-25T03:40:52;25.50;;;6.50;;
12356;SDS011;6243;51.244;6.774;2024-01-25T03:43:18;23.97;;;6.97;;
12356;SDS011;6243;51.244;6.774;2024-01-25T03:45:43;24.77;;;6.70;;
12356;SDS011;6243;51.244;6.774;2024-01-25T03:48:10;32.50;;;7.20;;
12356;SDS011;6243;51.244;6.774;2024-01-25T03:50:35;20.23;;;6.87;;
12356;SDS011;6243;51.244;6.774;2024-01-25T03:53:01;18.63;;;5.90;;
12356;SDS011;6243;51.244;6.774;2024-01-25T03:55:26;23.37;;;5.57;;
12356;SDS011;6243;51.244;6.774;2024-01-25T03:57:52;24.23;;;7.03;;
12356;SDS011;6243;51.244;6.774;2024-01-25T04:00:18;24.53;;;6.23;;
12356;SDS011;6243;51.244;6.774;2024-01-25T04:02:43;25.27;;;6.03;;
12356;SDS011;6243;51.244;6.774;2024-01-25T04:05:10;22.40;;;6.50;;
12356;SDS011;6243;51.244;6.774;2024-01-25T04:07:36;24.47;;;6.63;;
12356;SDS011;6243;51.244;6.774;2024-01-25T04:10:01;29.13;;;7.10;;
12356;SDS011;6243;51.244;6.774;2024-01-25T04:12:27;31.87;;;7.57;;
12356;SDS011;6243;51.244;6.774;2024-01-25T04:14:52;29.80;;;6.93;;
12356;SDS011;6243;51.244;6.774;2024-01-25T04:17:18;18.77;;;5.70;;
12356;SDS011;6243;51.244;6.774;2024-01-25T04:19:43;26.57;;;6.80;;
12356;SDS011;6243;51.244;6.774;2024-01-25T04:22:10;28.80;;;6.90;;
12356;SDS011;6243;51.244;6.774;2024-01-25T04:24:36;25.90;;;6.97;;
12356;SDS011;6243;51.244;6.774;2024-01-25T04:27:02;24.63;;;6.27;;
12356;SDS011;6243;51.244;6.774;2024-01-25T04:29:28;24.70;;;6.93;;
12356;SDS011;6243;51.244;6.774;2024-01-25T04:31:53;30.97;;;7.23;;
12356;SDS011;6243;51.244;6.774;2024-01-25T04:34:19;18.93;;;6.40;;
12356;SDS011;6243;51.244;6.774;2024-01-25T04:36:44;25.23;;;7.17;;
12356;SDS011;6243;51.244;6.774;2024-01-25T04:39:11;25.57;;;6.57;;
12356;SDS011;6243;51.244;6.774;2024-01-25T04:41:36;26.53;;;7.30;;
12356;SDS011;6243;51.244;6.774;2024-01-25T04:44:02;27.70;;;6.63;;
12356;SDS011;6243;51.244;6.774;2024-01-25T04:46:28;27.87;;;7.03;;
12356;SDS011;6243;51.244;6.774;2024-01-25T04:48:53;26.10;;;6.63;;
12356;SDS011;6243;51.244;6.774;2024-01-25T04:51:19;29.97;;;6.70;;
12356;SDS011;6243;51.244;6.774;2024-01-25T04:53:45;20.17;;;6.27;;
12356;SDS011;6243;51.244;6.774;2024-01-25T04:56:11;21.87;;;6.37;;
12356;SDS011;6243;51.244;6.774;2024-01-25T04:58:37;29.97;;;7.30;;
12356;SDS011;6243;51.244;6.774;2024-01-25T05:01:02;29.90;;;7.13;;
12356;SDS011;6243;51.244;6.774;2024-01-25T05:03:28;25.83;;;6.70;;
12356;SDS011;6243;51.244;6.774;2024-01-25T05:05:54;24.37;;;6.37;;
12356;SDS011;6243;51.244;6.774;2024-01-25T05:08:19;30.80;;;6.90;;
12356;SDS011;6243;51.244;6.774;2024-01-25T05:10:45;23.00;;;6.77;;
12356;SDS011;6243;51.244;6.774;2024-01-25T05:13:12;25.03;;;7.13;;
12356;SDS011;6243;51.244;6.774;2024-01-25T05:15:37;21.83;;;6.67;;
12356;SDS011;6243;51.244;6.774;2024-01-25T05:18:03;27.10;;;6.67;;
12356;SDS011;6243;51.244;6.774;2024-01-25T05:20:29;28.03;;;6.77;;
12356;SDS011;6243;51.244;6.774;2024-01-25T05:22:55;26.90;;;5.83;;
12356;SDS011;6243;51.244;6.774;2024-01-25T05:25:20;22.03;;;6.87;;
12356;SDS011;6243;51.244;6.774;2024-01-25T05:27:46;23.37;;;6.63;;
12356;SDS011;6243;51.244;6.774;2024-01-25T05:30:13;22.07;;;5.63;;
12356;SDS011;6243;51.244;6.774;2024-01-25T05:32:39;27.03;;;6.23;;
12356;SDS011;6243;51.244;6.774;2024-01-25T05:35:04;24.87;;;6.83;;
12356;SDS011;6243;51.244;6.774;2024-01-25T05:37:31;24.10;;;5.90;;
12356;SDS011;6243;51.244;6.774;2024-01-25T05:39:56;22.13;;;6.40;;
12356;SDS011;6243;51.244;6.774;2024-01-25T05:42:22;31.47;;;6.83;;
12356;SDS011;6243;51.244;6.774;2024-01-25T05:44:47;25.27;;;7.40;;
12356;SDS011;6243;51.244;6.774;2024-01-25T05:47:14;24.30;;;6.57;;
12356;SDS011;6243;51.244;6.774;2024-01-25T05:49:40;35.80;;;7.33;;
12356;SDS011;6243;51.244;6.774;2024-01-25T05:52:05;25.23;;;5.90;;
12356;SDS011;6243;51.244;6.774;2024-01-25T05:54:31;23.47;;;6.57;;
12356;SDS011;6243;51.244;6.774;2024-01-25T05:56:56;28.37;;;6.70;;
12356;SDS011;6243;51.244;6.774;2024-01-25T05:59:22;23.10;;;6.90;;
12356;SDS011;6243;51.244;6.774;2024-01-25T06:01:47;23.67;;;7.00;;
12356;SDS011;6243;51.244;6.774;2024-01-25T06:04:14;18.90;;;5.97;;
12356;SDS011;6243;51.244;6.774;2024-01-25T06:06:39;19.00;;;6.50;;
12356;SDS011;6243;51.244;6.774;2024-01-25T06:09:05;20.83;;;7.03;;
12356;SDS011;6243;51.244;6.774;2024-01-25T06:11:30;22.03;;;6.73;;
12356;SDS011;6243;51.244;6.774;2024-01-25T06:13:56;29.57;;;7.13;;
12356;SDS011;6243;51.244;6.774;2024-01-25T06:16:21;21.63;;;6.80;;
12356;SDS011;6243;51.244;6.774;2024-01-25T06:18:47;29.13;;;7.43;;
12356;SDS011;6243;51.244;6.774;2024-01-25T06:21:14;25.07;;;6.67;;
12356;SDS011;6243;51.244;6.774;2024-01-25T06:23:40;22.67;;;6.00;;
12356;SDS011;6243;51.244;6.774;2024-01-25T06:26:05;24.70;;;6.27;;
12356;SDS011;6243;51.244;6.774;2024-01-25T06:28:31;22.50;;;6.43;;
12356;SDS011;6243;51.244;6.774;2024-01-25T06:30:56;21.93;;;6.10;;
12356;SDS011;6243;51.244;6.774;2024-01-25T06:33:22;23.67;;;6.37;;
12356;SDS011;6243;51.244;6.774;2024-01-25T06:35:47;20.57;;;6.00;;
12356;SDS011;6243;51.244;6.774;2024-01-25T06:38:14;25.03;;;6.83;;
12356;SDS011;6243;51.244;6.774;2024-01-25T06:40:40;20.50;;;5.70;;
12356;SDS011;6243;51.244;6.774;2024-01-25T06:43:05;24.20;;;6.27;;
12356;SDS011;6243;51.244;6.774;2024-01-25T06:45:30;21.40;;;6.37;;
12356;SDS011;6243;51.244;6.774;2024-01-25T06:47:56;24.60;;;6.07;;
12356;SDS011;6243;51.244;6.774;2024-01-25T06:50:21;27.93;;;7.10;;
12356;SDS011;6243;51.244;6.774;2024-01-25T06:52:47;20.40;;;6.67;;
12356;SDS011;6243;51.244;6.774;2024-01-25T06:55:14;27.13;;;7.10;;
12356;SDS011;6243;51.244;6.774;2024-01-25T06:57:39;29.90;;;6.93;;
12356;SDS011;6243;51.244;6.774;2024-01-25T07:00:05;20.33;;;6.37;;
12356;SDS011;6243;51.244;6.774;2024-01-25T07:02:32;24.07;;;6.60;;
12356;SDS011;6243;51.244;6.774;2024-01-25T07:04:57;24.83;;;5.97;;
12356;SDS011;6243;51.244;6.774;2024-01-25T07:07:23;21.87;;;6.50;;
12356;SDS011;6243;51.244;6.774;2024-01-25T07:09:48;20.83;;;7.10;;
12356;SDS011;6243;51.244;6.774;2024-01-25T07:12:15;25.53;;;7.47;;
12356;SDS011;6243;51.244;6.774;2024-01-25T07:14:40;24.07;;;7.13;;
12356;SDS011;6243;51.244;6.774;2024-01-25T07:17:06;25.33;;;6.53;;
12356;SDS011;6243;51.244;6.774;2024-01-25T07:19:31;25.70;;;7.27;;
12356;SDS011;6243;51.244;6.774;2024-01-25T07:21:57;22.43;;;7.27;;
12356;SDS011;6243;51.244;6.774;2024-01-25T07:24:22;25.17;;;7.20;;
12356;SDS011;6243;51.244;6.774;2024-01-25T07:26:48;24.63;;;6.83;;
12356;SDS011;6243;51.244;6.774;2024-01-25T07:29:15;22.93;;;7.37;;
12356;SDS011;6243;51.244;6.774;2024-01-25T07:31:40;24.13;;;7.77;;
12356;SDS011;6243;51.244;6.774;2024-01-25T07:34:06;28.73;;;8.33;;
12356;SDS011;6243;51.244;6.774;2024-01-25T07:36:31;25.50;;;7.90;;
12356;SDS011;6243;51.244;6.774;2024-01-25T07:38:57;28.43;;;7.77;;
12356;SDS011;6243;51.244;6.774;2024-01-25T07:41:22;23.13;;;7.10;;
12356;SDS011;6243;51.244;6.774;2024-01-25T07:43:48;18.57;;;6.47;;
12356;SDS011;6243;51.244;6.774;2024-01-25T07:46:14;24.97;;;7.73;;
12356;SDS011;6243;51.244;6.774;2024-01-25T07:48:40;28.23;;;7.73;;
12356;SDS011;6243;51.244;6.774;2024-01-25T07:51:10;27.30;;;7.30;;
12356;SDS011;6243;51.244;6.774;2024-01-25T07:53:36;24.77;;;7.70;;
12356;SDS011;6243;51.244;6.774;2024-01-25T07:56:01;27.77;;;7.83;;
12356;SDS011;6243;51.244;6.774;2024-01-25T07:58:27;30.13;;;8.20;;
12356;SDS011;6243;51.244;6.774;2024-01-25T08:00:52;29.40;;;8.00;;
12356;SDS011;6243;51.244;6.774;2024-01-25T08:03:19;18.03;;;6.70;;
12356;SDS011;6243;51.244;6.774;2024-01-25T08:05:45;24.70;;;6.63;;
12356;SDS011;6243;51.244;6.774;2024-01-25T08:08:10;25.30;;;7.50;;
12356;SDS011;6243;51.244;6.774;2024-01-25T08:10:36;24.50;;;7.57;;
12356;SDS011;6243;51.244;6.774;2024-01-25T08:13:01;25.87;;;7.90;;
12356;SDS011;6243;51.244;6.774;2024-01-25T08:15:27;23.37;;;7.10;;
12356;SDS011;6243;51.244;6.774;2024-01-25T08:17:53;24.40;;;8.03;;
12356;SDS011;6243;51.244;6.774;2024-01-25T08:20:20;28.40;;;8.03;;
12356;SDS011;6243;51.244;6.774;2024-01-25T08:22:45;25.87;;;7.87;;
12356;SDS011;6243;51.244;6.774;2024-01-25T08:25:11;28.00;;;7.80;;
12356;SDS011;6243;51.244;6.774;2024-01-25T08:27:36;26.03;;;7.63;;
12356;SDS011;6243;51.244;6.774;2024-01-25T08:30:02;22.63;;;7.43;;
12356;SDS011;6243;51.244;6.774;2024-01-25T08:32:32;28.30;;;8.13;;
12356;SDS011;6243;51.244;6.774;2024-01-25T08:34:57;26.87;;;7.83;;
12356;SDS011;6243;51.244;6.774;2024-01-25T08:37:24;25.83;;;7.97;;
12356;SDS011;6243;51.244;6.774;2024-01-25T08:39:50;39.40;;;8.53;;
12356;SDS011;6243;51.244;6.774;2024-01-25T08:42:16;26.03;;;7.83;;
12356;SDS011;6243;51.244;6.774;2024-01-25T08:44:42;34.20;;;9.13;;
12356;SDS011;6243;51.244;6.774;2024-01-25T08:47:07;32.13;;;8.53;;
12356;SDS011;6243;51.244;6.774;2024-01-25T08:49:37;28.77;;;8.47;;
12356;SDS011;6243;51.244;6.774;2024-01-25T08:52:03;23.90;;;9.33;;
12356;SDS011;6243;51.244;6.774;2024-01-25T08:54:30;31.60;;;9.07;;
12356;SDS011;6243;51.244;6.774;2024-01-25T08:56:56;36.83;;;9.77;;
12356;SDS011;6243;51.244;6.774;2024-01-25T08:59:22;29.47;;;8.57;;
12356;SDS011;6243;51.244;6.774;2024-01-25T09:01:47;26.00;;;8.93;;
12356;SDS011;6243;51.244;6.774;2024-01-25T09:04:13;26.83;;;9.10;;
12356;SDS011;6243;51.244;6.774;2024-01-25T09:06:38;30.57;;;9.40;;
12356;SDS011;6243;51.244;6.774;2024-01-25T09:09:05;32.23;;;9.43;;
12356;SDS011;6243;51.244;6.774;2024-01-25T09:11:32;33.80;;;9.87;;
12356;SDS011;6243;51.244;6.774;2024-01-25T09:13:57;26.40;;;8.60;;
12356;SDS011;6243;51.244;6.774;2024-01-25T09:16:23;33.83;;;9.50;;
12356;SDS011;6243;51.244;6.774;2024-01-25T09:18:49;31.43;;;10.07;;
12356;SDS011;6243;51.244;6.774;2024-01-25T09:21:14;41.00;;;10.10;;
12356;SDS011;6243;51.244;6.774;2024-01-25T09:23:40;32.67;;;9.43;;
12356;SDS011;6243;51.244;6.774;2024-01-25T09:26:05;30.40;;;9.63;;
12356;SDS011;6243;51.244;6.774;2024-01-25T09:28:32;30.20;;;10.57;;
12356;SDS011;6243;51.244;6.774;2024-01-25T09:30:58;30.67;;;10.47;;
12356;SDS011;6243;51.244;6.774;2024-01-25T09:33:23;29.27;;;10.07;;
12356;SDS011;6243;51.244;6.774;2024-01-25T09:35:49;31.40;;;9.67;;
12356;SDS011;6243;51.244;6.774;2024-01-25T09:38:14;31.97;;;10.60;;
12356;SDS011;6243;51.244;6.774;2024-01-25T09:40:40;25.97;;;10.17;;
12356;SDS011;6243;51.244;6.774;2024-01-25T09:43:05;30.07;;;10.67;;
12356;SDS011;6243;51.244;6.774;2024-01-25T09:45:33;34.50;;;10.77;;
12356;SDS011;6243;51.244;6.774;2024-01-25T09:47:58;32.17;;;10.27;;
12356;SDS011;6243;51.244;6.774;2024-01-25T09:50:24;35.53;;;10.67;;
12356;SDS011;6243;51.244;6.774;2024-01-25T09:52:52;30.20;;;10.20;;
12356;SDS011;6243;51.244;6.774;2024-01-25T09:55:19;32.90;;;10.23;;
12356;SDS011;6243;51.244;6.774;2024-01-25T09:57:49;31.20;;;10.47;;
12356;SDS011;6243;51.244;6.774;2024-01-25T10:00:19;28.57;;;10.47;;
12356;SDS011;6243;51.244;6.774;2024-01-25T10:02:46;35.60;;;10.87;;
12356;SDS011;6243;51.244;6.774;2024-01-25T10:05:12;29.03;;;10.20;;
12356;SDS011;6243;51.244;6.774;2024-01-25T10:07:38;33.13;;;10.57;;
12356;SDS011;6243;51.244;6.774;2024-01-25T10:10:04;34.60;;;11.07;;
12356;SDS011;6243;51.244;6.774;2024-01-25T10:12:31;35.33;;;11.80;;
12356;SDS011;6243;51.244;6.774;2024-01-25T10:14:56;27.83;;;10.17;;
12356;SDS011;6243;51.244;6.774;2024-01-25T10:17:22;28.23;;;10.10;;
12356;SDS011;6243;51.244;6.774;2024-01-25T10:19:49;29.33;;;10.20;;
12356;SDS011;6243;51.244;6.774;2024-01-25T10:22:14;28.17;;;9.33;;
12356;SDS011;6243;51.244;6.774;2024-01-25T10:24:40;28.57;;;9.37;;
12356;SDS011;6243;51.244;6.774;2024-01-25T10:27:07;35.27;;;10.90;;
12356;SDS011;6243;51.244;6.774;2024-01-25T10:29:33;34.17;;;10.37;;
12356;SDS011;6243;51.244;6.774;2024-01-25T10:31:59;30.07;;;9.90;;
12356;SDS011;6243;51.244;6.774;2024-01-25T10:34:25;31.27;;;10.00;;
12356;SDS011;6243;51.244;6.774;2024-01-25T10:36:54;38.07;;;12.00;;
12356;SDS011;6243;51.244;6.774;2024-01-25T10:39:21;30.50;;;10.40;;
12356;SDS011;6243;51.244;6.774;2024-01-25T10:41:47;33.70;;;10.83;;
12356;SDS011;6243;51.244;6.774;2024-01-25T10:44:12;29.70;;;10.47;;
12356;SDS011;6243;51.244;6.774;2024-01-25T10:46:38;29.30;;;11.27;;
12356;SDS011;6243;51.244;6.774;2024-01-25T10:49:05;28.23;;;10.67;;
12356;SDS011;6243;51.244;6.774;2024-01-25T10:51:32;30.37;;;10.63;;
12356;SDS011;6243;51.244;6.774;2024-01-25T10:54:00;36.70;;;11.63;;
12356;SDS011;6243;51.244;6.774;2024-01-25T10:56:26;33.70;;;10.33;;
12356;SDS011;6243;51.244;6.774;2024-01-25T10:58:52;32.07;;;11.63;;
12356;SDS011;6243;51.244;6.774;2024-01-25T11:01:18;29.53;;;10.83;;
12356;SDS011;6243;51.244;6.774;2024-01-25T11:03:45;30.73;;;10.60;;
12356;SDS011;6243;51.244;6.774;2024-01-25T11:06:11;31.77;;;11.10;;
12356;SDS011;6243;51.244;6.774;2024-01-25T11:08:37;32.87;;;10.77;;
12356;SDS011;6243;51.244;6.774;2024-01-25T11:11:04;28.80;;;10.90;;
12356;SDS011;6243;51.244;6.774;2024-01-25T11:13:31;26.33;;;10.73;;
12356;SDS011;6243;51.244;6.774;2024-01-25T11:16:14;31.90;;;11.87;;
12356;SDS011;6243;51.244;6.774;2024-01-25T11:18:47;29.47;;;11.77;;
12356;SDS011;6243;51.244;6.774;2024-01-25T11:21:21;35.30;;;11.83;;
12356;SDS011;6243;51.244;6.774;2024-01-25T11:23:47;30.73;;;12.40;;
12356;SDS011;6243;51.244;6.774;2024-01-25T11:26:15;26.40;;;11.83;;
12356;SDS011;6243;51.244;6.774;2024-01-25T11:28:40;27.37;;;11.50;;
12356;SDS011;6243;51.244;6.774;2024-01-25T11:31:06;30.33;;;11.97;;
12356;SDS011;6243;51.244;6.774;2024-01-25T11:33:32;29.80;;;13.10;;
12356;SDS011;6243;51.244;6.774;2024-01-25T11:35:58;37.03;;;13.77;;
12356;SDS011;6243;51.244;6.774;2024-01-25T11:38:24;34.30;;;13.03;;
12356;SDS011;6243;51.244;6.774;2024-01-25T11:40:50;33.07;;;13.57;;
12356;SDS011;6243;51.244;6.774;2024-01-25T11:43:17;31.73;;;13.70;;
12356;SDS011;6243;51.244;6.774;2024-01-25T11:45:42;31.80;;;13.27;;
12356;SDS011;6243;51.244;6.774;2024-01-25T11:48:08;35.90;;;13.70;;
12356;SDS011;6243;51.244;6.774;2024-01-25T11:50:33;33.93;;;13.60;;
12356;SDS011;6243;51.244;6.774;2024-01-25T11:53:00;39.00;;;14.50;;
12356;SDS011;6243;51.244;6.774;2024-01-25T11:55:25;37.13;;;15.37;;
12356;SDS011;6243;51.244;6.774;2024-01-25T11:57:51;40.83;;;15.80;;
12356;SDS011;6243;51.244;6.774;2024-01-25T12:00:18;33.83;;;14.93;;
12356;SDS011;6243;51.244;6.774;2024-01-25T12:02:44;39.20;;;15.93;;
12356;SDS011;6243;51.244;6.774;2024-01-25T12:05:10;39.50;;;15.43;;
12356;SDS011;6243;51.244;6.774;2024-01-25T12:07:36;38.07;;;16.67;;
12356;SDS011;6243;51.244;6.774;2024-01-25T12:10:02;38.77;;;16.57;;
12356;SDS011;6243;51.244;6.774;2024-01-25T12:12:28;39.33;;;16.23;;
12356;SDS011;6243;51.244;6.774;2024-01-25T12:14:57;43.40;;;18.33;;
12356;SDS011;6243;51.244;6.774;2024-01-25T12:17:24;37.00;;;15.00;;
12356;SDS011;6243;51.244;6.774;2024-01-25T12:19:51;41.57;;;15.77;;
12356;SDS011;6243;51.244;6.774;2024-01-25T12:22:20;45.30;;;18.37;;
12356;SDS011;6243;51.244;6.774;2024-01-25T12:24:45;36.23;;;16.23;;
12356;SDS011;6243;51.244;6.774;2024-01-25T12:27:11;41.70;;;16.80;;
12356;SDS011;6243;51.244;6.774;2024-01-25T12:29:36;36.47;;;16.00;;
12356;SDS011;6243;51.244;6.774;2024-01-25T12:32:02;42.67;;;16.50;;
12356;SDS011;6243;51.244;6.774;2024-01-25T12:34:29;42.23;;;16.63;;
12356;SDS011;6243;51.244;6.774;2024-01-25T12:36:55;42.67;;;16.03;;
12356;SDS011;6243;51.244;6.774;2024-01-25T12:39:20;42.33;;;16.27;;
12356;SDS011;6243;51.244;6.774;2024-01-25T12:41:46;34.27;;;15.10;;
12356;SDS011;6243;51.244;6.774;2024-01-25T12:44:11;34.07;;;14.67;;
12356;SDS011;6243;51.244;6.774;2024-01-25T12:46:37;35.13;;;15.17;;
12356;SDS011;6243;51.244;6.774;2024-01-25T12:49:03;36.23;;;16.13;;
12356;SDS011;6243;51.244;6.774;2024-01-25T12:51:29;44.23;;;17.30;;
12356;SDS011;6243;51.244;6.774;2024-01-25T12:53:55;35.43;;;16.40;;
12356;SDS011;6243;51.244;6.774;2024-01-25T12:56:21;42.57;;;16.10;;
12356;SDS011;6243;51.244;6.774;2024-01-25T12:58:46;36.73;;;16.23;;
12356;SDS011;6243;51.244;6.774;2024-01-25T13:01:12;39.97;;;15.30;;
12356;SDS011;6243;51.244;6.774;2024-01-25T13:03:37;35.53;;;15.27;;
12356;SDS011;6243;51.244;6.774;2024-01-25T13:06:03;32.80;;;15.10;;
12356;SDS011;6243;51.244;6.774;2024-01-25T13:08:30;38.27;;;15.33;;
12356;SDS011;6243;51.244;6.774;2024-01-25T13:10:56;34.27;;;13.30;;
12356;SDS011;6243;51.244;6.774;2024-01-25T13:13:22;36.17;;;14.57;;
12356;SDS011;6243;51.244;6.774;2024-01-25T13:15:47;34.60;;;14.77;;
12356;SDS011;6243;51.244;6.774;2024-01-25T13:18:13;40.57;;;15.00;;
12356;SDS011;6243;51.244;6.774;2024-01-25T13:20:38;33.60;;;14.40;;
12356;SDS011;6243;51.244;6.774;2024-01-25T13:23:04;31.30;;;14.50;;
12356;SDS011;6243;51.244;6.774;2024-01-25T13:25:30;35.77;;;14.23;;
12356;SDS011;6243;51.244;6.774;2024-01-25T13:27:56;39.80;;;15.00;;
12356;SDS011;6243;51.244;6.774;2024-01-25T13:30:21;34.53;;;15.60;;
12356;SDS011;6243;51.244;6.774;2024-01-25T13:32:47;33.93;;;13.90;;
12356;SDS011;6243;51.244;6.774;2024-01-25T13:35:12;35.30;;;14.83;;
12356;SDS011;6243;51.244;6.774;2024-01-25T13:37:38;35.30;;;15.50;;
12356;SDS011;6243;51.244;6.774;2024-01-25T13:40:04;34.60;;;14.50;;
12356;SDS011;6243;51.244;6.774;2024-01-25T13:42:32;38.67;;;14.87;;
12356;SDS011;6243;51.244;6.774;2024-01-25T13:44:57;36.93;;;15.37;;
12356;SDS011;6243;51.244;6.774;2024-01-25T13:47:23;33.97;;;15.10;;
12356;SDS011;6243;51.244;6.774;2024-01-25T13:49:48;32.10;;;13.70;;
12356;SDS011;6243;51.244;6.774;2024-01-25T13:52:16;36.77;;;15.53;;
12356;SDS011;6243;51.244;6.774;2024-01-25T13:54:43;35.93;;;14.30;;
12356;SDS011;6243;51.244;6.774;2024-01-25T13:57:13;40.97;;;14.93;;
12356;SDS011;6243;51.244;6.774;2024-01-25T13:59:40;37.87;;;14.20;;
12356;SDS011;6243;51.244;6.774;2024-01-25T14:02:06;39.43;;;14.17;;
12356;SDS011;6243;51.244;6.774;2024-01-25T14:04:32;33.73;;;13.97;;
12356;SDS011;6243;51.244;6.774;2024-01-25T14:06:57;29.93;;;13.47;;
12356;SDS011;6243;51.244;6.774;2024-01-25T14:09:23;35.87;;;13.40;;
12356;SDS011;6243;51.244;6.774;2024-01-25T14:11:48;29.87;;;12.47;;
12356;SDS011;6243;51.244;6.774;2024-01-25T14:14:14;29.80;;;12.13;;
12356;SDS011;6243;51.244;6.774;2024-01-25T14:16:41;30.90;;;12.30;;
12356;SDS011;6243;51.244;6.774;2024-01-25T14:19:06;37.07;;;13.23;;
12356;SDS011;6243;51.244;6.774;2024-01-25T14:21:32;36.60;;;13.70;;
12356;SDS011;6243;51.244;6.774;2024-01-25T14:23:57;35.73;;;13.20;;
12356;SDS011;6243;51.244;6.774;2024-01-25T14:26:23;29.40;;;12.47;;
12356;SDS011;6243;51.244;6.774;2024-01-25T14:28:49;31.40;;;12.20;;
12356;SDS011;6243;51.244;6.774;2024-01-25T14:31:14;29.60;;;11.53;;
12356;SDS011;6243;51.244;6.774;2024-01-25T14:33:42;33.13;;;11.63;;
12356;SDS011;6243;51.244;6.774;2024-01-25T14:36:07;29.40;;;12.10;;